Details for Ryanair at EDDW




Go Back


Latest METAR
Local Time

EDDW 252220Z 06008KT CAVOK 17/09 Q1021

26/05/2018, 00:30:08

Description
Results
Ryanair Logo
Number of Pilots based at EDDW
0 Pilots Based here
Number of Ryanair Flights Departed from EDDW
1 Flights Departed
Number of Ryanair Flights Arrived at EDDW
0 Flights Arrived
Number of Ryanair Schedules Departing from EDDW
39 Schedules
Number of Ryanair Schedules Arriving at EDDW
39 Schedules
Number of Ryanair Schedules Departing from EDDW availible today
8 Schedules Today
Number of Ryanair Schedules Arriving at EDDW availible today
8 Schedules Today
Average Landing Rate at EDDW
-552 fpm
Ryanair Average Landing Rate at EDDW
0 fpm
Total Fuel Purchased at EDDW by Ryanair
2,579.13 kgs / 5,685.95 lbs

Pilots Based at EDDW


Pilot ID
Pilot Name
Pilot Rank
No. of Flights
No. of Flying Hours
There are no pilots assigned to this hub!   Will you be the first?
Content